Aérodrome :
LOGIN :

S'inscrire | Disclaimer

   EN    FR    IT 

 










Légende :    VFR   VFR Marginal   IFR   IFR Intensif   IFR Très Intensif
Visi : 
Plafond : 
>= 8 km
>= 3000ft
5 à 8 km
1000 à 3000 ft
1500m à 5 km
500 à 1000 ft
800 à 1500m
200 à 500 ft
< 800m
< 200 ft
Symboles :   Orages  Brouillard  Fortes neiges  Fortes précipitations  Vent > 20 kt
SIGMETs :   Divers  Orages  Givrage  Turbulence  Onde Orograph.  Cendres Volcan.







- Altitude de l'aérodrome : 659 ft
- Code IATA : LGG


EBLG - Liège

DERNIER METAR :
  • 171820Z 04005KT 5000 BR NSC 14/13 Q1018 NOSIG

METARs EXPIRÉS :
  • 171750Z 05005KT 6000 NSC 14/11 Q1018 NOSIG
  • 171720Z 02004KT 7000 NSC 14/13 Q1018 NOSIG
  • 171650Z 02004KT CAVOK 15/14 Q1019 NOSIG
  • 171620Z 03004KT 9999 FEW025 15/12 Q1019 NOSIG
  • 171550Z 02004KT 9999 FEW025 16/13 Q1019 NOSIG

TAF TAF EBLG
Valide du 17 à 18h jusqu'au 19 à 00h UTC


171701Z 1718/1824 05003KT 9999 SCT020
TEMPO 1801/1807 3500 BR
PROB40 1802/1806 0600 FG BKN001
Pas de NOTAMs connus pour ce terrain.



MET'MAP, la Météo Aéronautique d'un coup d'oeil ! - Copyright ORBIFLY Décembre 2007 - Disclaimer

ORBIFLY MET'MAP TEAM :

Programmation & Développement : Alexandra Zaïnal
Conception & Développement : Baudouin d'Aumeries
Co-Programmation & Développement : Marc-Olivier Méhu
Soutien technique & logistique : Manuel Goepfert

Contact : metmap@orbifly.com




SOURCES & CREDITS :

   NOAA